sensor_id;sensor_type;location;lat;lon;timestamp;pressure;altitude;pressure_sealevel;temperature;humidity
49063;BME280;34876;51.464;-0.150;2024-03-08T00:01:12;101364.19;;;16.16;40.78
49063;BME280;34876;51.464;-0.150;2024-03-08T00:03:41;101360.40;;;16.47;40.17
49063;BME280;34876;51.464;-0.150;2024-03-08T00:06:11;101366.33;;;16.20;40.76
49063;BME280;34876;51.464;-0.150;2024-03-08T00:08:44;101358.95;;;15.44;42.39
49063;BME280;34876;51.464;-0.150;2024-03-08T00:11:15;101360.31;;;16.03;41.20
49063;BME280;34876;51.464;-0.150;2024-03-08T00:13:43;101359.53;;;16.24;40.30
49063;BME280;34876;51.464;-0.150;2024-03-08T00:16:12;101348.92;;;16.50;40.14
49063;BME280;34876;51.464;-0.150;2024-03-08T00:18:41;101347.53;;;16.39;40.33
49063;BME280;34876;51.464;-0.150;2024-03-08T00:21:10;101343.19;;;15.87;41.48
49063;BME280;34876;51.464;-0.150;2024-03-08T00:23:41;101342.36;;;16.09;41.05
49063;BME280;34876;51.464;-0.150;2024-03-08T00:26:11;101336.22;;;15.71;41.42
49063;BME280;34876;51.464;-0.150;2024-03-08T00:28:45;101328.89;;;16.14;40.86
49063;BME280;34876;51.464;-0.150;2024-03-08T00:31:18;101320.17;;;16.29;40.65
49063;BME280;34876;51.464;-0.150;2024-03-08T00:33:52;101321.77;;;16.02;40.55
49063;BME280;34876;51.464;-0.150;2024-03-08T00:36:27;101319.32;;;14.92;43.86
49063;BME280;34876;51.464;-0.150;2024-03-08T00:39:02;101313.95;;;15.35;42.64
49063;BME280;34876;51.464;-0.150;2024-03-08T00:41:31;101308.44;;;15.48;42.44
49063;BME280;34876;51.464;-0.150;2024-03-08T00:44:00;101299.97;;;16.10;41.16
49063;BME280;34876;51.464;-0.150;2024-03-08T00:46:30;101303.71;;;15.50;42.05
49063;BME280;34876;51.464;-0.150;2024-03-08T00:49:01;101301.92;;;15.99;41.19
49063;BME280;34876;51.464;-0.150;2024-03-08T00:51:30;101297.26;;;15.98;41.32
49063;BME280;34876;51.464;-0.150;2024-03-08T00:54:00;101301.98;;;15.91;41.12
49063;BME280;34876;51.464;-0.150;2024-03-08T00:56:30;101297.40;;;15.90;41.50
49063;BME280;34876;51.464;-0.150;2024-03-08T00:58:59;101286.32;;;16.66;39.99
49063;BME280;34876;51.464;-0.150;2024-03-08T01:03:36;101281.29;;;16.67;39.92
49063;BME280;34876;51.464;-0.150;2024-03-08T01:06:06;101284.75;;;16.28;40.53
49063;BME280;34876;51.464;-0.150;2024-03-08T01:08:34;101279.35;;;16.44;40.40
49063;BME280;34876;51.464;-0.150;2024-03-08T01:11:03;101280.85;;;16.22;40.85
49063;BME280;34876;51.464;-0.150;2024-03-08T01:13:34;101278.01;;;16.08;41.20
49063;BME280;34876;51.464;-0.150;2024-03-08T01:16:03;101275.80;;;15.84;41.81
49063;BME280;34876;51.464;-0.150;2024-03-08T01:18:33;101269.21;;;16.33;40.65
49063;BME280;34876;51.464;-0.150;2024-03-08T01:21:02;101265.61;;;16.44;40.47
49063;BME280;34876;51.464;-0.150;2024-03-08T01:23:32;101268.19;;;15.85;41.43
49063;BME280;34876;51.464;-0.150;2024-03-08T01:26:01;101270.18;;;15.58;42.34
49063;BME280;34876;51.464;-0.150;2024-03-08T01:28:31;101261.51;;;15.97;41.35
49063;BME280;34876;51.464;-0.150;2024-03-08T01:31:00;101254.96;;;16.29;40.81
49063;BME280;34876;51.464;-0.150;2024-03-08T01:33:37;101256.81;;;14.58;43.95
49063;BME280;34876;51.464;-0.150;2024-03-08T01:36:07;101250.09;;;15.53;42.58
49063;BME280;34876;51.464;-0.150;2024-03-08T01:38:41;101248.79;;;13.74;46.35
49063;BME280;34876;51.464;-0.150;2024-03-08T01:41:10;101247.05;;;13.81;46.99
49063;BME280;34876;51.464;-0.150;2024-03-08T01:43:39;101240.48;;;14.53;45.21
49063;BME280;34876;51.464;-0.150;2024-03-08T01:46:09;101232.08;;;13.87;46.62
49063;BME280;34876;51.464;-0.150;2024-03-08T01:48:45;101238.67;;;12.75;49.48
49063;BME280;34876;51.464;-0.150;2024-03-08T01:51:16;101236.99;;;12.13;51.49
49063;BME280;34876;51.464;-0.150;2024-03-08T01:53:47;101235.18;;;13.25;48.65
49063;BME280;34876;51.464;-0.150;2024-03-08T01:56:18;101228.20;;;14.58;45.21
49063;BME280;34876;51.464;-0.150;2024-03-08T01:59:09;101224.06;;;14.84;44.55
49063;BME280;34876;51.464;-0.150;2024-03-08T02:01:38;101210.73;;;16.10;41.51
49063;BME280;34876;51.464;-0.150;2024-03-08T02:04:07;101211.77;;;16.05;41.50
49063;BME280;34876;51.464;-0.150;2024-03-08T02:06:37;101204.53;;;16.43;40.59
49063;BME280;34876;51.464;-0.150;2024-03-08T02:09:07;101201.49;;;16.24;40.79
49063;BME280;34876;51.464;-0.150;2024-03-08T02:11:37;101196.20;;;16.46;40.54
49063;BME280;34876;51.464;-0.150;2024-03-08T02:14:09;101195.34;;;16.03;40.84
49063;BME280;34876;51.464;-0.150;2024-03-08T02:16:38;101191.29;;;16.17;41.08
49063;BME280;34876;51.464;-0.150;2024-03-08T02:19:07;101193.32;;;15.71;42.00
49063;BME280;34876;51.464;-0.150;2024-03-08T02:21:36;101185.33;;;16.44;40.51
49063;BME280;34876;51.464;-0.150;2024-03-08T02:24:06;101183.86;;;16.30;40.83
49063;BME280;34876;51.464;-0.150;2024-03-08T02:26:37;101179.33;;;16.49;40.35
49063;BME280;34876;51.464;-0.150;2024-03-08T02:29:10;101174.27;;;16.65;40.03
49063;BME280;34876;51.464;-0.150;2024-03-08T02:31:39;101168.94;;;15.96;41.54
49063;BME280;34876;51.464;-0.150;2024-03-08T02:34:07;101165.33;;;16.46;40.43
49063;BME280;34876;51.464;-0.150;2024-03-08T02:36:36;101161.48;;;15.60;42.31
49063;BME280;34876;51.464;-0.150;2024-03-08T02:39:11;101157.66;;;16.09;41.16
49063;BME280;34876;51.464;-0.150;2024-03-08T02:41:44;101148.31;;;16.35;40.68
49063;BME280;34876;51.464;-0.150;2024-03-08T02:44:15;101144.42;;;16.51;40.31
49063;BME280;34876;51.464;-0.150;2024-03-08T02:46:43;101140.74;;;16.21;40.88
49063;BME280;34876;51.464;-0.150;2024-03-08T02:49:22;101134.81;;;16.00;41.33
49063;BME280;34876;51.464;-0.150;2024-03-08T02:51:56;101131.89;;;16.12;41.12
49063;BME280;34876;51.464;-0.150;2024-03-08T02:54:31;101133.00;;;16.38;40.57
49063;BME280;34876;51.464;-0.150;2024-03-08T02:57:00;101133.24;;;15.28;42.40
49063;BME280;34876;51.464;-0.150;2024-03-08T02:59:34;101127.79;;;16.28;40.78
49063;BME280;34876;51.464;-0.150;2024-03-08T03:02:05;101124.37;;;15.96;41.27
49063;BME280;34876;51.464;-0.150;2024-03-08T03:04:39;101120.38;;;16.25;40.81
49063;BME280;34876;51.464;-0.150;2024-03-08T03:07:08;101132.98;;;14.89;43.89
49063;BME280;34876;51.464;-0.150;2024-03-08T03:09:41;101130.09;;;15.24;41.77
49063;BME280;34876;51.464;-0.150;2024-03-08T03:12:15;101119.39;;;16.05;41.28
49063;BME280;34876;51.464;-0.150;2024-03-08T03:14:54;101118.86;;;15.30;42.07
49063;BME280;34876;51.464;-0.150;2024-03-08T03:17:28;101115.21;;;16.09;41.14
49063;BME280;34876;51.464;-0.150;2024-03-08T03:20:02;101123.83;;;14.70;42.93
49063;BME280;34876;51.464;-0.150;2024-03-08T03:22:36;101103.26;;;16.07;41.11
49063;BME280;34876;51.464;-0.150;2024-03-08T03:25:07;101101.20;;;15.56;41.93
49063;BME280;34876;51.464;-0.150;2024-03-08T03:27:38;101101.24;;;14.90;43.64
49063;BME280;34876;51.464;-0.150;2024-03-08T03:30:13;101090.25;;;15.72;41.76
49063;BME280;34876;51.464;-0.150;2024-03-08T03:32:42;101091.63;;;16.38;40.32
49063;BME280;34876;51.464;-0.150;2024-03-08T03:35:11;101086.83;;;16.44;40.15
49063;BME280;34876;51.464;-0.150;2024-03-08T03:37:52;101090.24;;;16.44;40.14
49063;BME280;34876;51.464;-0.150;2024-03-08T03:40:28;101093.61;;;14.21;44.26
49063;BME280;34876;51.464;-0.150;2024-03-08T03:42:58;101083.63;;;16.06;41.02
49063;BME280;34876;51.464;-0.150;2024-03-08T03:45:33;101078.09;;;15.46;41.32
49063;BME280;34876;51.464;-0.150;2024-03-08T03:48:04;101077.26;;;16.12;40.64
49063;BME280;34876;51.464;-0.150;2024-03-08T03:50:41;101071.38;;;15.82;41.44
49063;BME280;34876;51.464;-0.150;2024-03-08T03:53:10;101065.16;;;16.20;40.27
49063;BME280;34876;51.464;-0.150;2024-03-08T03:55:39;101063.23;;;15.23;41.67
49063;BME280;34876;51.464;-0.150;2024-03-08T03:58:11;101065.29;;;13.92;45.59
49063;BME280;34876;51.464;-0.150;2024-03-08T04:00:45;101059.47;;;15.12;42.62
49063;BME280;34876;51.464;-0.150;2024-03-08T04:03:15;101048.86;;;15.68;41.25
49063;BME280;34876;51.464;-0.150;2024-03-08T04:05:46;101048.29;;;15.45;42.05
49063;BME280;34876;51.464;-0.150;2024-03-08T04:08:20;101054.15;;;13.96;44.83
49063;BME280;34876;51.464;-0.150;2024-03-08T04:10:56;101042.42;;;14.91;43.48
49063;BME280;34876;51.464;-0.150;2024-03-08T04:13:26;101050.94;;;14.22;44.48
49063;BME280;34876;51.464;-0.150;2024-03-08T04:15:58;101042.51;;;15.67;41.68
49063;BME280;34876;51.464;-0.150;2024-03-08T04:18:39;101057.57;;;12.46;48.00
49063;BME280;34876;51.464;-0.150;2024-03-08T04:21:10;101045.54;;;13.86;46.08
49063;BME280;34876;51.464;-0.150;2024-03-08T04:23:38;101037.28;;;14.74;43.92
49063;BME280;34876;51.464;-0.150;2024-03-08T04:26:07;101036.55;;;14.36;43.68
49063;BME280;34876;51.464;-0.150;2024-03-08T04:28:42;101034.12;;;14.63;43.21
49063;BME280;34876;51.464;-0.150;2024-03-08T04:31:16;101042.70;;;13.22;45.25
49063;BME280;34876;51.464;-0.150;2024-03-08T04:33:45;101029.33;;;14.07;44.87
49063;BME280;34876;51.464;-0.150;2024-03-08T04:36:13;101031.75;;;13.90;45.53
49063;BME280;34876;51.464;-0.150;2024-03-08T04:38:44;101025.00;;;15.36;42.29
49063;BME280;34876;51.464;-0.150;2024-03-08T04:41:14;101025.34;;;14.99;42.97
49063;BME280;34876;51.464;-0.150;2024-03-08T04:43:44;101020.19;;;15.19;42.07
49063;BME280;34876;51.464;-0.150;2024-03-08T04:46:18;101023.84;;;14.64;43.72
49063;BME280;34876;51.464;-0.150;2024-03-08T04:48:53;101025.10;;;13.57;44.63
49063;BME280;34876;51.464;-0.150;2024-03-08T04:51:24;101011.98;;;14.96;42.85
49063;BME280;34876;51.464;-0.150;2024-03-08T04:53:54;101017.44;;;15.63;41.63
49063;BME280;34876;51.464;-0.150;2024-03-08T04:56:30;101019.62;;;15.53;40.41
49063;BME280;34876;51.464;-0.150;2024-03-08T04:59:05;101021.75;;;14.42;42.29
49063;BME280;34876;51.464;-0.150;2024-03-08T05:01:35;101015.51;;;15.24;42.01
49063;BME280;34876;51.464;-0.150;2024-03-08T05:04:04;101012.26;;;14.54;42.82
49063;BME280;34876;51.464;-0.150;2024-03-08T05:06:33;101008.09;;;15.08;42.24
49063;BME280;34876;51.464;-0.150;2024-03-08T05:09:07;101005.16;;;15.00;42.84
49063;BME280;34876;51.464;-0.150;2024-03-08T05:11:37;101001.85;;;15.18;42.39
49063;BME280;34876;51.464;-0.150;2024-03-08T05:14:06;100999.03;;;14.46;43.90
49063;BME280;34876;51.464;-0.150;2024-03-08T05:16:37;101009.19;;;13.36;44.79
49063;BME280;34876;51.464;-0.150;2024-03-08T05:19:12;101001.51;;;14.24;42.90
49063;BME280;34876;51.464;-0.150;2024-03-08T05:21:42;100999.40;;;13.79;45.67
49063;BME280;34876;51.464;-0.150;2024-03-08T05:24:12;101002.66;;;12.27;47.34
49063;BME280;34876;51.464;-0.150;2024-03-08T05:26:41;100990.35;;;14.45;43.99
49063;BME280;34876;51.464;-0.150;2024-03-08T05:29:11;100995.17;;;13.74;43.98
49063;BME280;34876;51.464;-0.150;2024-03-08T05:31:47;100979.43;;;15.14;41.29
49063;BME280;34876;51.464;-0.150;2024-03-08T05:34:16;100980.60;;;13.84;45.37
49063;BME280;34876;51.464;-0.150;2024-03-08T05:36:52;100985.62;;;13.18;46.02
49063;BME280;34876;51.464;-0.150;2024-03-08T05:39:26;100979.84;;;13.33;46.24
49063;BME280;34876;51.464;-0.150;2024-03-08T05:41:55;100971.32;;;14.04;44.41
49063;BME280;34876;51.464;-0.150;2024-03-08T05:44:25;100968.36;;;13.98;44.55
49063;BME280;34876;51.464;-0.150;2024-03-08T05:46:54;100968.89;;;11.88;51.19
49063;BME280;34876;51.464;-0.150;2024-03-08T05:49:28;100958.46;;;12.85;48.35
49063;BME280;34876;51.464;-0.150;2024-03-08T05:52:03;100957.56;;;13.15;46.64
49063;BME280;34876;51.464;-0.150;2024-03-08T05:54:38;100953.64;;;13.74;46.05
49063;BME280;34876;51.464;-0.150;2024-03-08T05:57:06;100942.04;;;14.28;44.47
49063;BME280;34876;51.464;-0.150;2024-03-08T05:59:40;100950.05;;;11.11;52.51
49063;BME280;34876;51.464;-0.150;2024-03-08T06:02:10;100944.61;;;12.99;47.78
49063;BME280;34876;51.464;-0.150;2024-03-08T06:04:40;100933.11;;;14.17;45.00
49063;BME280;34876;51.464;-0.150;2024-03-08T06:07:10;100944.37;;;12.13;49.34
49063;BME280;34876;51.464;-0.150;2024-03-08T06:09:39;100925.23;;;14.45;44.42
49063;BME280;34876;51.464;-0.150;2024-03-08T06:12:10;100925.41;;;14.60;43.58
49063;BME280;34876;51.464;-0.150;2024-03-08T06:14:38;100922.89;;;14.40;44.31
49063;BME280;34876;51.464;-0.150;2024-03-08T06:17:09;100938.62;;;12.82;47.40
49063;BME280;34876;51.464;-0.150;2024-03-08T06:19:38;100934.35;;;12.76;47.85
49063;BME280;34876;51.464;-0.150;2024-03-08T06:22:13;100933.78;;;13.65;46.33
49063;BME280;34876;51.464;-0.150;2024-03-08T06:24:42;100935.74;;;10.84;53.11
49063;BME280;34876;51.464;-0.150;2024-03-08T06:27:14;100926.82;;;11.34;52.57
49063;BME280;34876;51.464;-0.150;2024-03-08T06:29:48;100929.56;;;12.67;48.98
49063;BME280;34876;51.464;-0.150;2024-03-08T06:32:17;100925.72;;;12.58;48.76
49063;BME280;34876;51.464;-0.150;2024-03-08T06:34:47;100918.92;;;12.41;49.30
49063;BME280;34876;51.464;-0.150;2024-03-08T06:37:16;100912.85;;;13.81;46.21
49063;BME280;34876;51.464;-0.150;2024-03-08T06:39:51;100909.78;;;14.64;43.96
49063;BME280;34876;51.464;-0.150;2024-03-08T06:42:23;100913.51;;;14.90;43.12
49063;BME280;34876;51.464;-0.150;2024-03-08T06:44:52;100914.77;;;14.91;43.12
49063;BME280;34876;51.464;-0.150;2024-03-08T06:47:22;100923.15;;;13.79;45.88
49063;BME280;34876;51.464;-0.150;2024-03-08T06:49:59;100914.72;;;14.51;44.24
49063;BME280;34876;51.464;-0.150;2024-03-08T06:52:29;100910.49;;;15.47;41.84
49063;BME280;34876;51.464;-0.150;2024-03-08T06:55:01;100924.43;;;12.87;48.07
49063;BME280;34876;51.464;-0.150;2024-03-08T06:57:31;100907.18;;;15.41;42.18
49063;BME280;34876;51.464;-0.150;2024-03-08T07:00:07;100911.76;;;15.98;40.54
49063;BME280;34876;51.464;-0.150;2024-03-08T07:02:41;100910.25;;;15.07;42.69
49063;BME280;34876;51.464;-0.150;2024-03-08T07:05:11;100911.75;;;14.36;44.54
49063;BME280;34876;51.464;-0.150;2024-03-08T07:07:40;100909.83;;;15.71;41.16
49063;BME280;34876;51.464;-0.150;2024-03-08T07:10:12;100908.58;;;15.65;41.44
49063;BME280;34876;51.464;-0.150;2024-03-08T07:12:44;100918.07;;;13.45;46.67
49063;BME280;34876;51.464;-0.150;2024-03-08T07:15:12;100908.40;;;13.91;44.82
49063;BME280;34876;51.464;-0.150;2024-03-08T07:17:50;100906.20;;;15.12;42.81
49063;BME280;34876;51.464;-0.150;2024-03-08T07:20:19;100905.98;;;15.01;43.08
49063;BME280;34876;51.464;-0.150;2024-03-08T07:22:48;100910.57;;;13.76;45.25
49063;BME280;34876;51.464;-0.150;2024-03-08T07:25:17;100905.12;;;14.41;44.61
49063;BME280;34876;51.464;-0.150;2024-03-08T07:27:47;100904.09;;;15.39;42.02
49063;BME280;34876;51.464;-0.150;2024-03-08T07:30:16;100904.21;;;15.25;42.36
49063;BME280;34876;51.464;-0.150;2024-03-08T07:32:46;100900.49;;;16.23;40.26
49063;BME280;34876;51.464;-0.150;2024-03-08T07:35:21;100901.45;;;16.22;40.24
49063;BME280;34876;51.464;-0.150;2024-03-08T07:37:50;100902.23;;;15.92;40.88
49063;BME280;34876;51.464;-0.150;2024-03-08T07:40:28;100903.51;;;15.81;41.06
49063;BME280;34876;51.464;-0.150;2024-03-08T07:42:58;100899.82;;;16.24;40.17
49063;BME280;34876;51.464;-0.150;2024-03-08T07:45:43;100895.02;;;16.55;39.46
49063;BME280;34876;51.464;-0.150;2024-03-08T07:48:13;100894.50;;;16.09;39.75
49063;BME280;34876;51.464;-0.150;2024-03-08T07:50:44;100913.87;;;13.39;45.74
49063;BME280;34876;51.464;-0.150;2024-03-08T07:53:14;100894.78;;;15.71;41.21
49063;BME280;34876;51.464;-0.150;2024-03-08T07:55:42;100895.67;;;15.15;42.40
49063;BME280;34876;51.464;-0.150;2024-03-08T07:58:11;100885.33;;;16.17;40.40
49063;BME280;34876;51.464;-0.150;2024-03-08T08:00:39;100887.35;;;16.54;39.32
49063;BME280;34876;51.464;-0.150;2024-03-08T08:03:08;100881.65;;;15.68;41.19
49063;BME280;34876;51.464;-0.150;2024-03-08T08:05:38;100882.12;;;15.39;41.12
49063;BME280;34876;51.464;-0.150;2024-03-08T08:08:10;100873.99;;;16.50;39.66
49063;BME280;34876;51.464;-0.150;2024-03-08T08:10:40;100871.27;;;16.51;39.63
49063;BME280;34876;51.464;-0.150;2024-03-08T08:13:08;100887.86;;;14.47;42.98
49063;BME280;34876;51.464;-0.150;2024-03-08T08:15:37;100875.41;;;14.36;43.13
49063;BME280;34876;51.464;-0.150;2024-03-08T08:18:06;100864.47;;;14.57;43.82
49063;BME280;34876;51.464;-0.150;2024-03-08T08:20:35;100857.48;;;16.26;40.16
49063;BME280;34876;51.464;-0.150;2024-03-08T08:23:04;100857.43;;;15.94;40.72
49063;BME280;34876;51.464;-0.150;2024-03-08T08:25:33;100863.48;;;15.07;42.47
49063;BME280;34876;51.464;-0.150;2024-03-08T08:28:03;100852.03;;;16.25;40.00
49063;BME280;34876;51.464;-0.150;2024-03-08T08:30:43;100850.48;;;16.07;39.54
49063;BME280;34876;51.464;-0.150;2024-03-08T08:33:12;100868.85;;;14.64;41.77
49063;BME280;34876;51.464;-0.150;2024-03-08T08:35:42;100855.91;;;14.74;42.25
49063;BME280;34876;51.464;-0.150;2024-03-08T08:38:12;100841.37;;;15.55;41.06
49063;BME280;34876;51.464;-0.150;2024-03-08T08:40:42;100855.29;;;14.30;42.43
49063;BME280;34876;51.464;-0.150;2024-03-08T08:43:11;100845.11;;;14.30;44.03
49063;BME280;34876;51.464;-0.150;2024-03-08T08:45:40;100850.47;;;14.47;41.07
49063;BME280;34876;51.464;-0.150;2024-03-08T08:48:10;100843.90;;;13.95;43.72
49063;BME280;34876;51.464;-0.150;2024-03-08T08:50:39;100844.30;;;13.79;44.34
49063;BME280;34876;51.464;-0.150;2024-03-08T08:53:08;100841.69;;;13.89;43.84
49063;BME280;34876;51.464;-0.150;2024-03-08T08:55:40;100842.16;;;13.46;43.49
49063;BME280;34876;51.464;-0.150;2024-03-08T08:58:11;100832.38;;;14.68;42.88
49063;BME280;34876;51.464;-0.150;2024-03-08T09:00:41;100835.87;;;15.39;40.95
49063;BME280;34876;51.464;-0.150;2024-03-08T09:03:10;100823.26;;;15.62;40.16
49063;BME280;34876;51.464;-0.150;2024-03-08T09:05:39;100833.24;;;16.19;38.23
49063;BME280;34876;51.464;-0.150;2024-03-08T09:08:08;100819.49;;;15.39;39.59
49063;BME280;34876;51.464;-0.150;2024-03-08T09:10:38;100834.90;;;15.66;40.04
49063;BME280;34876;51.464;-0.150;2024-03-08T09:13:08;100820.36;;;15.43;39.34
49063;BME280;34876;51.464;-0.150;2024-03-08T09:15:39;100810.47;;;15.43;40.47
49063;BME280;34876;51.464;-0.150;2024-03-08T09:18:07;100811.73;;;15.92;37.90
49063;BME280;34876;51.464;-0.150;2024-03-08T09:20:38;100811.96;;;15.91;39.64
49063;BME280;34876;51.464;-0.150;2024-03-08T09:23:07;100810.72;;;15.63;38.43
49063;BME280;34876;51.464;-0.150;2024-03-08T09:25:36;100810.01;;;16.12;36.82
49063;BME280;34876;51.464;-0.150;2024-03-08T09:28:06;100804.04;;;15.63;38.75
49063;BME280;34876;51.464;-0.150;2024-03-08T09:30:35;100795.57;;;15.82;39.75
49063;BME280;34876;51.464;-0.150;2024-03-08T09:33:06;100798.89;;;15.41;38.46
49063;BME280;34876;51.464;-0.150;2024-03-08T09:35:40;100791.80;;;15.40;39.20
49063;BME280;34876;51.464;-0.150;2024-03-08T09:38:21;100787.83;;;15.67;40.03
49063;BME280;34876;51.464;-0.150;2024-03-08T09:40:51;100774.65;;;16.08;39.36
49063;BME280;34876;51.464;-0.150;2024-03-08T09:43:22;100770.19;;;15.62;37.77
49063;BME280;34876;51.464;-0.150;2024-03-08T09:45:52;100768.47;;;15.31;38.05
49063;BME280;34876;51.464;-0.150;2024-03-08T09:48:22;100761.39;;;15.64;39.99
49063;BME280;34876;51.464;-0.150;2024-03-08T09:50:52;100750.92;;;16.00;39.33
49063;BME280;34876;51.464;-0.150;2024-03-08T09:53:22;100761.06;;;16.10;37.78
49063;BME280;34876;51.464;-0.150;2024-03-08T09:55:53;100744.18;;;15.58;38.17
49063;BME280;34876;51.464;-0.150;2024-03-08T09:58:21;100745.48;;;16.29;38.21
49063;BME280;34876;51.464;-0.150;2024-03-08T10:00:50;100737.20;;;16.21;38.39
49063;BME280;34876;51.464;-0.150;2024-03-08T10:03:20;100731.17;;;16.36;38.31
49063;BME280;34876;51.464;-0.150;2024-03-08T10:05:49;100731.14;;;16.12;36.70
49063;BME280;34876;51.464;-0.150;2024-03-08T10:08:20;100720.60;;;15.96;37.73
49063;BME280;34876;51.464;-0.150;2024-03-08T10:10:51;100720.65;;;16.38;36.84
49063;BME280;34876;51.464;-0.150;2024-03-08T10:13:19;100730.71;;;14.43;38.99
49063;BME280;34876;51.464;-0.150;2024-03-08T10:15:51;100708.32;;;15.59;39.50
49063;BME280;34876;51.464;-0.150;2024-03-08T10:18:21;100700.41;;;14.16;40.18
49063;BME280;34876;51.464;-0.150;2024-03-08T10:21:08;100698.84;;;15.19;38.45
49063;BME280;34876;51.464;-0.150;2024-03-08T10:23:38;100707.36;;;14.54;39.52
49063;BME280;34876;51.464;-0.150;2024-03-08T10:26:12;100694.26;;;14.85;38.80
49063;BME280;34876;51.464;-0.150;2024-03-08T10:28:48;100698.64;;;14.01;40.46
49063;BME280;34876;51.464;-0.150;2024-03-08T10:31:20;100690.67;;;14.99;38.42
49063;BME280;34876;51.464;-0.150;2024-03-08T10:33:50;100690.67;;;15.66;38.07
49063;BME280;34876;51.464;-0.150;2024-03-08T10:36:20;100700.75;;;15.46;39.62
49063;BME280;34876;51.464;-0.150;2024-03-08T10:39:01;100681.00;;;15.41;38.84
49063;BME280;34876;51.464;-0.150;2024-03-08T10:41:32;100668.58;;;16.45;38.06
49063;BME280;34876;51.464;-0.150;2024-03-08T10:44:12;100664.92;;;16.07;36.37
49063;BME280;34876;51.464;-0.150;2024-03-08T10:47:00;100656.96;;;15.83;38.06
49063;BME280;34876;51.464;-0.150;2024-03-08T10:49:37;100655.44;;;15.40;39.80
49063;BME280;34876;51.464;-0.150;2024-03-08T10:52:07;100654.74;;;14.74;41.01
49063;BME280;34876;51.464;-0.150;2024-03-08T10:54:39;100640.96;;;14.19;41.28
49063;BME280;34876;51.464;-0.150;2024-03-08T10:57:12;100643.61;;;14.48;42.26
49063;BME280;34876;51.464;-0.150;2024-03-08T10:59:42;100628.39;;;15.70;39.70
49063;BME280;34876;51.464;-0.150;2024-03-08T11:02:12;100627.83;;;15.70;37.26
49063;BME280;34876;51.464;-0.150;2024-03-08T11:04:46;100615.66;;;14.87;40.10
49063;BME280;34876;51.464;-0.150;2024-03-08T11:07:17;100622.71;;;14.54;41.62
49063;BME280;34876;51.464;-0.150;2024-03-08T11:09:48;100624.64;;;13.42;41.65
49063;BME280;34876;51.464;-0.150;2024-03-08T11:12:26;100625.31;;;13.63;40.98
49063;BME280;34876;51.464;-0.150;2024-03-08T11:14:55;100614.64;;;14.10;42.29
49063;BME280;34876;51.464;-0.150;2024-03-08T11:17:40;100612.48;;;13.48;40.90
49063;BME280;34876;51.464;-0.150;2024-03-08T11:20:19;100601.84;;;14.88;40.59
49063;BME280;34876;51.464;-0.150;2024-03-08T11:22:49;100606.19;;;14.50;39.55
49063;BME280;34876;51.464;-0.150;2024-03-08T11:25:36;100613.65;;;14.49;37.65
49063;BME280;34876;51.464;-0.150;2024-03-08T11:28:13;100610.07;;;15.17;37.35
49063;BME280;34876;51.464;-0.150;2024-03-08T11:30:43;100612.17;;;12.84;40.93
49063;BME280;34876;51.464;-0.150;2024-03-08T11:33:14;100606.82;;;13.86;38.90
49063;BME280;34876;51.464;-0.150;2024-03-08T11:35:45;100610.68;;;13.68;39.50
49063;BME280;34876;51.464;-0.150;2024-03-08T11:38:15;100608.71;;;13.70;41.72
49063;BME280;34876;51.464;-0.150;2024-03-08T11:40:46;100618.14;;;14.46;39.87
49063;BME280;34876;51.464;-0.150;2024-03-08T11:43:16;100601.38;;;14.32;40.00
49063;BME280;34876;51.464;-0.150;2024-03-08T11:45:46;100593.63;;;13.76;38.96
49063;BME280;34876;51.464;-0.150;2024-03-08T11:48:17;100587.89;;;13.61;41.26
49063;BME280;34876;51.464;-0.150;2024-03-08T11:50:45;100581.34;;;15.05;39.17
49063;BME280;34876;51.464;-0.150;2024-03-08T11:53:15;100595.84;;;14.19;37.82
49063;BME280;34876;51.464;-0.150;2024-03-08T11:55:45;100586.00;;;14.57;37.75
49063;BME280;34876;51.464;-0.150;2024-03-08T11:58:21;100571.61;;;15.00;39.78
49063;BME280;34876;51.464;-0.150;2024-03-08T12:00:51;100560.87;;;14.48;38.85
49063;BME280;34876;51.464;-0.150;2024-03-08T12:03:19;100573.15;;;13.97;40.13
49063;BME280;34876;51.464;-0.150;2024-03-08T12:05:57;100544.64;;;15.61;38.81
49063;BME280;34876;51.464;-0.150;2024-03-08T12:08:26;100545.19;;;14.32;40.89
49063;BME280;34876;51.464;-0.150;2024-03-08T12:10:55;100547.73;;;14.32;39.96
49063;BME280;34876;51.464;-0.150;2024-03-08T12:13:26;100542.39;;;15.18;38.93
49063;BME280;34876;51.464;-0.150;2024-03-08T12:15:56;100545.35;;;14.45;39.29
49063;BME280;34876;51.464;-0.150;2024-03-08T12:18:27;100540.94;;;14.46;38.36
49063;BME280;34876;51.464;-0.150;2024-03-08T12:21:04;100551.28;;;13.92;39.00
49063;BME280;34876;51.464;-0.150;2024-03-08T12:23:33;100543.75;;;14.62;37.31
49063;BME280;34876;51.464;-0.150;2024-03-08T12:26:17;100526.91;;;13.71;38.53
49063;BME280;34876;51.464;-0.150;2024-03-08T12:28:52;100548.80;;;12.53;40.96
49063;BME280;34876;51.464;-0.150;2024-03-08T12:31:22;100536.32;;;12.34;43.22
49063;BME280;34876;51.464;-0.150;2024-03-08T12:33:55;100531.01;;;12.00;44.25
49063;BME280;34876;51.464;-0.150;2024-03-08T12:36:24;100525.88;;;14.88;40.22
49063;BME280;34876;51.464;-0.150;2024-03-08T12:38:55;100518.92;;;15.26;38.32
49063;BME280;34876;51.464;-0.150;2024-03-08T12:41:25;100518.02;;;14.89;39.61
49063;BME280;34876;51.464;-0.150;2024-03-08T12:43:55;100506.43;;;15.56;38.76
49063;BME280;34876;51.464;-0.150;2024-03-08T12:46:23;100515.17;;;13.88;40.34
49063;BME280;34876;51.464;-0.150;2024-03-08T12:49:00;100509.20;;;13.94;40.32
49063;BME280;34876;51.464;-0.150;2024-03-08T12:51:31;100515.65;;;14.96;39.81
49063;BME280;34876;51.464;-0.150;2024-03-08T12:54:02;100506.53;;;14.64;40.12
49063;BME280;34876;51.464;-0.150;2024-03-08T12:56:36;100507.36;;;14.93;40.23
49063;BME280;34876;51.464;-0.150;2024-03-08T12:59:07;100509.06;;;14.74;40.17
49063;BME280;34876;51.464;-0.150;2024-03-08T13:01:35;100492.38;;;15.32;38.91
49063;BME280;34876;51.464;-0.150;2024-03-08T13:04:05;100487.79;;;15.66;38.83